Time;durP1;ratioP1;P1;durP2;ratioP2;P2;SDS_P1;SDS_P2;PMS_P1;PMS_P2;Temp;Humidity;BMP_temperature;BMP_pressure;BME280_temperature;BME280_humidity;BME280_pressure;Samples;Min_cycle;Max_cycle;Signal;HPM_P1;HPM_P2
2023/08/27 00:01:08;;;;;;;0.82;0.82;;;;;;;19.11;84.58;100357.94;4987937;28;20038;-63
2023/08/27 00:03:33;;;;;;;1.40;0.90;;;;;;;19.04;84.43;100364.31;4987195;28;20455;-63
2023/08/27 00:05:59;;;;;;;0.90;0.90;;;;;;;19.02;84.65;100360.47;4987324;28;20280;-62
2023/08/27 00:08:24;;;;;;;2.00;1.02;;;;;;;18.89;85.00;100349.41;5009363;28;20057;-63
2023/08/27 00:10:50;;;;;;;1.38;0.90;;;;;;;18.73;85.26;100352.03;5053683;28;20032;-63
2023/08/27 00:13:15;;;;;;;1.40;0.95;;;;;;;18.73;85.83;100349.31;5052434;28;20093;-63
2023/08/27 00:15:45;;;;;;;1.00;0.75;;;;;;;18.73;85.42;100352.03;5072020;28;20028;-63
2023/08/27 00:18:11;;;;;;;1.23;0.90;;;;;;;18.65;85.69;100351.41;5070532;28;20107;-63
2023/08/27 00:20:37;;;;;;;1.33;0.80;;;;;;;18.65;85.69;100356.06;5070052;28;20096;-63
2023/08/27 00:23:03;;;;;;;1.15;1.00;;;;;;;18.52;86.15;100353.19;5072086;28;20040;-63
2023/08/27 00:25:29;;;;;;;2.67;1.20;;;;;;;18.35;86.52;100346.00;5072739;28;20384;-63
2023/08/27 00:27:55;;;;;;;1.35;1.13;;;;;;;18.32;86.90;100344.13;5071578;28;20032;-63
2023/08/27 00:30:20;;;;;;;2.05;0.95;;;;;;;18.22;87.58;100344.28;5054757;28;20105;-62
2023/08/27 00:32:46;;;;;;;0.60;0.47;;;;;;;18.36;87.11;100341.34;5054056;28;20029;-63
2023/08/27 00:35:11;;;;;;;0.80;0.63;;;;;;;18.44;87.03;100331.88;5053722;28;20191;-63
2023/08/27 00:37:37;;;;;;;3.50;0.98;;;;;;;18.42;86.95;100326.03;5045666;28;20031;-63
2023/08/27 00:40:03;;;;;;;2.78;1.02;;;;;;;18.43;86.06;100324.88;5071432;28;20029;-63
2023/08/27 00:42:49;;;;;;;1.15;0.63;;;;;;;18.34;86.52;100324.63;5071374;28;20025;-64
2023/08/27 00:45:15;;;;;;;1.50;1.00;;;;;;;18.40;86.68;100318.28;4952567;28;20525;-64
2023/08/27 00:47:41;;;;;;;1.23;0.90;;;;;;;18.35;86.90;100307.84;4971191;28;20133;-63
2023/08/27 00:50:10;;;;;;;1.13;1.02;;;;;;;18.47;86.63;100318.19;4970741;28;20121;-62
2023/08/27 00:52:35;;;;;;;1.35;1.05;;;;;;;18.48;86.31;100316.25;4954791;28;20418;-63
2023/08/27 00:55:01;;;;;;;0.90;0.73;;;;;;;18.47;86.17;100311.94;4969953;28;20038;-62
2023/08/27 00:57:27;;;;;;;0.70;0.70;;;;;;;18.50;85.62;100313.88;4970816;28;20134;-63
2023/08/27 00:59:57;;;;;;;1.83;0.80;;;;;;;18.50;85.34;100322.81;4971325;28;20577;-62
2023/08/27 01:02:23;;;;;;;0.63;0.60;;;;;;;18.48;85.25;100311.56;4955581;28;20053;-62
2023/08/27 01:04:49;;;;;;;0.85;0.82;;;;;;;18.42;85.91;100296.84;4966974;28;20051;-63
2023/08/27 01:07:24;;;;;;;1.20;0.75;;;;;;;18.33;85.93;100304.75;4954322;28;20112;-63
2023/08/27 01:10:08;;;;;;;1.02;0.88;;;;;;;18.32;85.66;100318.81;4971066;28;20046;-63
2023/08/27 01:12:53;;;;;;;1.63;0.85;;;;;;;18.26;85.75;100317.75;4968985;28;20509;-62
2023/08/27 01:15:22;;;;;;;1.63;1.00;;;;;;;18.24;86.21;100331.78;4971176;28;20521;-62
2023/08/27 01:17:47;;;;;;;2.78;1.10;;;;;;;18.23;86.11;100321.31;4970157;28;20041;-63
2023/08/27 01:20:14;;;;;;;1.77;0.70;;;;;;;18.14;86.67;100319.09;4971001;28;20122;-63
2023/08/27 01:22:41;;;;;;;2.58;1.08;;;;;;;18.21;86.57;100320.94;5037002;28;20033;-63
2023/08/27 01:25:08;;;;;;;2.28;0.80;;;;;;;18.22;86.46;100327.94;5071729;28;20040;-63
2023/08/27 01:27:41;;;;;;;0.90;0.90;;;;;;;18.23;86.58;100316.63;5063878;28;20028;-63
2023/08/27 01:30:23;;;;;;;1.17;0.60;;;;;;;18.22;86.74;100308.84;5064959;28;20394;-63
2023/08/27 01:33:08;;;;;;;1.30;1.05;;;;;;;18.24;86.69;100301.03;5047954;28;20033;-63
2023/08/27 01:35:34;;;;;;;2.08;0.90;;;;;;;18.23;86.11;100313.13;5036961;28;20677;-63
2023/08/27 01:38:00;;;;;;;2.42;0.77;;;;;;;18.17;86.23;100337.38;5070306;28;20035;-63
2023/08/27 01:40:27;;;;;;;0.90;0.68;;;;;;;18.09;86.66;100346.84;5071354;28;20029;-64
2023/08/27 01:42:52;;;;;;;1.00;0.70;;;;;;;18.07;86.57;100342.97;5069328;28;20048;-63
2023/08/27 01:45:19;;;;;;;1.60;0.80;;;;;;;18.07;86.96;100342.97;5053127;28;20063;-63
2023/08/27 01:47:45;;;;;;;1.30;1.00;;;;;;;18.13;87.29;100341.31;5036662;28;20067;-62
2023/08/27 01:50:10;;;;;;;1.63;1.05;;;;;;;18.19;87.30;100335.00;5036136;28;20479;-63
2023/08/27 01:52:36;;;;;;;2.17;1.23;;;;;;;18.01;87.16;100327.09;5043034;28;20085;-63
2023/08/27 01:55:06;;;;;;;1.42;1.10;;;;;;;18.04;87.79;100331.72;5052841;28;20396;-63
2023/08/27 01:57:31;;;;;;;1.15;0.90;;;;;;;18.02;87.45;100312.28;5053092;28;20039;-63
2023/08/27 01:59:57;;;;;;;0.98;0.88;;;;;;;18.04;87.30;100296.28;5048862;28;20120;-63
2023/08/27 02:02:23;;;;;;;1.23;0.95;;;;;;;18.01;87.70;100285.44;5066510;28;20223;-63
2023/08/27 02:04:49;;;;;;;1.23;0.80;;;;;;;17.95;87.70;100265.28;5070825;28;20491;-63
2023/08/27 02:07:16;;;;;;;0.82;0.80;;;;;;;18.01;87.17;100278.03;5052476;28;20089;-63
2023/08/27 02:09:44;;;;;;;1.23;0.73;;;;;;;18.03;87.09;100272.16;5065024;28;20036;-63
2023/08/27 02:12:09;;;;;;;0.47;0.47;;;;;;;17.88;87.32;100270.88;5052250;28;20024;-63
2023/08/27 02:14:36;;;;;;;3.10;0.80;;;;;;;17.85;87.17;100269.72;5048133;28;20521;-62
2023/08/27 02:17:02;;;;;;;3.78;0.90;;;;;;;17.82;87.26;100251.50;5038460;28;20029;-62
2023/08/27 02:19:27;;;;;;;0.98;0.82;;;;;;;17.74;87.55;100258.22;5051489;28;20161;-63
2023/08/27 02:21:53;;;;;;;1.10;0.95;;;;;;;17.69;87.55;100252.47;5050666;28;20428;-63
2023/08/27 02:24:18;;;;;;;0.82;0.80;;;;;;;17.64;88.54;100248.25;5049811;28;20054;-63
2023/08/27 02:26:44;;;;;;;1.10;1.00;;;;;;;17.71;88.25;100247.38;5068447;28;20051;-63
2023/08/27 02:29:09;;;;;;;1.17;0.88;;;;;;;17.57;88.40;100240.22;5050931;28;20407;-63
2023/08/27 02:31:35;;;;;;;1.75;1.20;;;;;;;17.50;88.41;100251.19;5052169;28;20689;-62
2023/08/27 02:34:00;;;;;;;1.17;0.80;;;;;;;17.56;88.31;100244.09;5069639;28;20040;-62
2023/08/27 02:36:46;;;;;;;2.05;1.17;;;;;;;17.48;88.19;100252.78;5068003;28;20048;-63
2023/08/27 02:39:11;;;;;;;1.63;0.98;;;;;;;17.40;88.64;100271.13;4967021;28;20125;-63
2023/08/27 02:41:37;;;;;;;1.80;1.35;;;;;;;17.47;88.67;100273.78;4959747;28;20125;-63
2023/08/27 02:44:03;;;;;;;1.55;0.95;;;;;;;17.51;88.59;100282.69;4946412;28;20043;-63
2023/08/27 02:46:28;;;;;;;1.88;0.85;;;;;;;17.51;88.37;100279.19;4966179;28;20045;-63
2023/08/27 02:48:54;;;;;;;2.17;0.98;;;;;;;17.49;88.03;100260.56;4965268;28;20035;-63
2023/08/27 02:51:20;;;;;;;1.55;1.00;;;;;;;17.55;87.79;100248.00;4960640;28;20090;-63
2023/08/27 02:53:46;;;;;;;1.40;0.77;;;;;;;17.53;87.80;100246.88;4966986;28;20045;-62
2023/08/27 02:56:11;;;;;;;1.77;0.80;;;;;;;17.52;88.23;100231.69;4968031;28;20043;-62
2023/08/27 02:58:37;;;;;;;0.98;0.77;;;;;;;17.54;87.63;100237.50;4967496;28;20034;-62
2023/08/27 03:01:03;;;;;;;2.05;0.93;;;;;;;17.39;87.36;100230.72;4969127;28;20029;-62
2023/08/27 03:03:28;;;;;;;2.15;1.15;;;;;;;17.15;88.26;100233.38;4952294;28;20097;-63
2023/08/27 03:05:54;;;;;;;1.50;0.90;;;;;;;17.08;88.92;100238.91;4965062;28;21058;-63
2023/08/27 03:08:19;;;;;;;2.80;0.88;;;;;;;17.22;88.61;100250.78;4967610;28;20043;-62
2023/08/27 03:10:45;;;;;;;1.00;0.77;;;;;;;17.33;88.54;100257.63;4939092;28;20494;-62
2023/08/27 03:13:11;;;;;;;0.85;0.85;;;;;;;17.30;88.47;100260.41;4953194;28;20043;-63
2023/08/27 03:15:36;;;;;;;0.70;0.68;;;;;;;17.32;88.44;100253.38;4982428;28;20124;-63
2023/08/27 03:18:03;;;;;;;1.50;1.00;;;;;;;17.40;87.64;100237.72;5065480;28;20040;-63
2023/08/27 03:20:29;;;;;;;2.65;1.40;;;;;;;17.40;87.86;100230.28;5068269;28;20386;-63
2023/08/27 03:22:55;;;;;;;1.45;1.00;;;;;;;17.40;87.43;100213.19;5064824;28;20028;-63
2023/08/27 03:25:21;;;;;;;1.58;0.82;;;;;;;17.30;87.43;100222.28;5055234;28;20067;-62
2023/08/27 03:27:47;;;;;;;0.88;0.77;;;;;;;17.36;88.02;100217.94;5051466;28;20039;-63
2023/08/27 03:30:12;;;;;;;1.33;0.88;;;;;;;17.32;87.80;100223.44;5057141;28;20379;-61
2023/08/27 03:32:38;;;;;;;1.08;0.80;;;;;;;17.17;87.66;100216.63;5049903;28;20066;-62
2023/08/27 03:35:04;;;;;;;1.55;1.10;;;;;;;17.09;88.22;100201.59;5048688;28;20101;-62
2023/08/27 03:37:29;;;;;;;1.88;0.88;;;;;;;17.15;88.38;100199.94;5053349;28;20450;-62
2023/08/27 03:39:55;;;;;;;0.85;0.68;;;;;;;17.21;88.56;100192.09;5051972;28;20024;-63
2023/08/27 03:42:20;;;;;;;0.77;0.60;;;;;;;17.23;88.42;100187.75;5042728;28;20395;-62
2023/08/27 03:44:46;;;;;;;3.50;1.08;;;;;;;17.24;88.29;100186.59;5043363;28;20033;-63
2023/08/27 03:47:11;;;;;;;0.60;0.60;;;;;;;17.15;88.20;100180.88;5055549;28;20040;-63
2023/08/27 03:49:37;;;;;;;1.80;0.98;;;;;;;17.13;88.80;100185.97;5053197;28;20020;-63
2023/08/27 03:52:03;;;;;;;1.65;1.08;;;;;;;17.00;88.82;100193.91;5058894;28;20578;-62
2023/08/27 03:54:30;;;;;;;2.05;1.40;;;;;;;16.94;89.29;100192.06;5064428;28;20457;-63
2023/08/27 03:56:56;;;;;;;1.70;1.08;;;;;;;17.03;89.09;100195.06;5071756;28;20044;-62
2023/08/27 03:59:21;;;;;;;2.42;1.13;;;;;;;17.04;88.43;100204.75;5073403;28;20028;-62
2023/08/27 04:01:47;;;;;;;1.65;1.20;;;;;;;17.03;88.69;100186.91;5055178;28;20467;-62
2023/08/27 04:04:12;;;;;;;1.25;1.08;;;;;;;17.02;89.12;100183.41;5066457;28;20538;-63
2023/08/27 04:06:38;;;;;;;0.80;0.70;;;;;;;17.00;88.72;100169.44;5055142;28;20513;-63
2023/08/27 04:09:04;;;;;;;1.02;0.75;;;;;;;16.92;88.50;100186.25;5039459;28;20471;-63
2023/08/27 04:11:30;;;;;;;1.75;1.10;;;;;;;16.88;89.06;100171.91;5072456;28;20412;-62
2023/08/27 04:13:56;;;;;;;2.20;0.98;;;;;;;16.94;89.04;100173.00;5054175;28;20044;-62
2023/08/27 04:16:21;;;;;;;1.10;0.98;;;;;;;16.97;88.23;100181.16;5055191;28;20123;-62
2023/08/27 04:18:47;;;;;;;0.77;0.75;;;;;;;16.72;89.30;100171.75;5070508;28;20067;-63
2023/08/27 04:21:12;;;;;;;1.10;0.90;;;;;;;16.79;89.62;100169.72;5054366;28;20021;-63
2023/08/27 04:23:37;;;;;;;0.70;0.70;;;;;;;16.72;89.57;100174.47;5053683;28;20036;-61
2023/08/27 04:26:03;;;;;;;1.33;0.98;;;;;;;16.76;89.80;100169.78;5054876;28;20036;-63
2023/08/27 04:28:31;;;;;;;1.15;0.90;;;;;;;16.88;89.01;100182.81;5071312;28;20033;-63
2023/08/27 04:30:57;;;;;;;1.15;0.82;;;;;;;16.94;88.59;100192.06;5051189;28;20052;-63
2023/08/27 04:33:23;;;;;;;1.35;0.95;;;;;;;16.87;88.56;100184.00;5052823;22;20122;-60
2023/08/27 04:35:52;;;;;;;1.05;0.85;;;;;;;16.82;88.42;100189.91;5051796;28;20235;-58
2023/08/27 04:38:18;;;;;;;1.65;1.08;;;;;;;16.71;89.22;100186.53;5017790;28;20071;-57
2023/08/27 04:40:48;;;;;;;1.27;1.08;;;;;;;16.78;88.97;100194.59;5050899;28;20053;-58
2023/08/27 04:43:14;;;;;;;1.23;0.85;;;;;;;16.78;88.54;100200.06;5032671;28;20486;-56
2023/08/27 04:45:39;;;;;;;1.15;0.93;;;;;;;16.85;88.60;100195.28;5034243;28;20032;-58
2023/08/27 04:48:05;;;;;;;2.17;1.15;;;;;;;16.73;89.31;100208.66;5034114;28;20033;-59
2023/08/27 04:50:32;;;;;;;1.60;1.00;;;;;;;16.62;88.86;100208.00;5028146;28;20023;-57
2023/08/27 04:52:57;;;;;;;2.90;1.30;;;;;;;16.67;89.83;100207.53;5031084;28;20112;-59
2023/08/27 04:55:23;;;;;;;1.10;1.00;;;;;;;16.58;89.81;100202.63;5031440;28;20047;-58
2023/08/27 04:57:48;;;;;;;1.10;0.85;;;;;;;16.65;89.55;100218.06;5023530;28;20029;-59
2023/08/27 05:00:19;;;;;;;2.92;1.17;;;;;;;16.68;89.69;100214.53;5047768;28;20712;-60
2023/08/27 05:02:49;;;;;;;2.88;1.13;;;;;;;16.66;90.12;100208.75;5032517;28;20033;-59
2023/08/27 05:05:16;;;;;;;3.17;1.08;;;;;;;16.69;90.08;100208.69;5044097;28;20040;-59
2023/08/27 05:07:42;;;;;;;1.67;1.20;;;;;;;16.74;89.62;100224.53;5018215;28;20559;-59
2023/08/27 05:10:09;;;;;;;1.67;0.90;;;;;;;16.64;90.11;100221.97;5032451;28;20098;-58
2023/08/27 05:12:34;;;;;;;2.80;1.48;;;;;;;16.81;89.83;100234.59;5050595;28;20493;-59
2023/08/27 05:15:00;;;;;;;1.90;1.27;;;;;;;16.89;89.64;100230.59;5033672;28;20033;-59
2023/08/27 05:17:25;;;;;;;1.90;1.13;;;;;;;16.96;89.65;100216.91;5029894;28;20029;-59
2023/08/27 05:19:51;;;;;;;1.10;1.00;;;;;;;17.02;88.93;100220.72;5026953;28;20503;-59
2023/08/27 05:22:16;;;;;;;1.30;1.15;;;;;;;17.02;89.23;100228.88;5032036;28;20021;-58
2023/08/27 05:24:42;;;;;;;1.95;1.50;;;;;;;16.99;88.92;100226.97;5049533;28;20120;-59
2023/08/27 05:27:07;;;;;;;2.28;1.40;;;;;;;17.01;90.15;100219.19;5030678;28;20415;-57
2023/08/27 05:29:33;;;;;;;1.92;1.35;;;;;;;16.96;90.32;100220.41;5018820;28;20021;-59
2023/08/27 05:31:59;;;;;;;2.65;1.42;;;;;;;16.94;90.42;100209.16;5045146;28;20475;-60
2023/08/27 05:34:24;;;;;;;2.47;1.45;;;;;;;16.99;90.89;100213.38;5031667;28;20315;-60
2023/08/27 05:36:50;;;;;;;1.23;1.13;;;;;;;17.11;90.80;100221.75;5048416;28;20029;-60
2023/08/27 05:39:16;;;;;;;1.92;1.60;;;;;;;17.14;90.37;100217.44;5032195;28;20029;-59
2023/08/27 05:41:41;;;;;;;2.30;1.50;;;;;;;17.20;89.97;100215.81;5048834;28;20043;-60
2023/08/27 05:44:08;;;;;;;1.98;1.35;;;;;;;17.27;89.64;100220.38;5028649;28;20029;-60
2023/08/27 05:46:34;;;;;;;1.48;1.30;;;;;;;17.19;89.48;100214.25;5048530;28;20112;-59
2023/08/27 05:49:00;;;;;;;2.30;1.33;;;;;;;17.29;89.21;100199.72;5027936;28;20029;-59
2023/08/27 05:51:26;;;;;;;2.30;1.30;;;;;;;17.41;89.40;100192.94;5049389;28;20024;-59
2023/08/27 05:53:52;;;;;;;5.32;1.45;;;;;;;17.52;89.17;100199.03;5031111;28;20045;-59
2023/08/27 05:56:18;;;;;;;3.60;1.33;;;;;;;17.53;89.41;100195.91;5049388;28;20094;-59
2023/08/27 05:58:43;;;;;;;1.65;1.30;;;;;;;17.59;88.80;100201.66;5032363;28;20499;-59
2023/08/27 06:01:09;;;;;;;5.85;2.30;;;;;;;17.56;88.89;100208.69;5027424;28;20487;-58
2023/08/27 06:03:36;;;;;;;2.63;1.65;;;;;;;17.66;88.53;100207.75;5022513;28;20170;-59
2023/08/27 06:06:01;;;;;;;1.52;1.13;;;;;;;17.74;88.21;100202.97;5039654;28;20033;-59
2023/08/27 06:08:26;;;;;;;2.15;1.55;;;;;;;17.81;88.65;100200.13;5018366;28;20025;-59
2023/08/27 06:10:52;;;;;;;1.85;1.23;;;;;;;17.83;87.96;100203.19;5031063;28;20025;-59
2023/08/27 06:13:38;;;;;;;1.58;1.48;;;;;;;17.85;87.70;100209.78;5046999;28;20033;-59
2023/08/27 06:16:03;;;;;;;4.53;1.25;;;;;;;17.86;88.10;100199.66;4944931;29;20091;-59
2023/08/27 06:18:29;;;;;;;2.88;1.60;;;;;;;17.94;87.94;100214.72;4941552;29;20046;-59
2023/08/27 06:20:55;;;;;;;1.85;1.48;;;;;;;17.99;88.53;100203.31;4940650;29;20912;-58
2023/08/27 06:23:21;;;;;;;2.08;1.27;;;;;;;18.03;88.26;100204.03;4918130;29;20122;-59
2023/08/27 06:25:47;;;;;;;2.22;1.48;;;;;;;18.04;88.79;100203.63;4929185;29;20031;-59
2023/08/27 06:28:15;;;;;;;2.97;1.60;;;;;;;18.14;88.69;100201.88;4944360;29;20066;-59
2023/08/27 06:30:44;;;;;;;2.22;1.48;;;;;;;18.13;87.87;100185.94;4944656;29;20027;-58
2023/08/27 06:33:10;;;;;;;1.75;1.30;;;;;;;18.20;87.77;100178.41;4943139;29;20050;-59
2023/08/27 06:35:36;;;;;;;2.13;1.25;;;;;;;18.28;87.75;100179.81;4921699;29;20035;-59
2023/08/27 06:38:02;;;;;;;2.03;1.23;;;;;;;18.35;88.35;100179.69;4941858;29;20130;-59
2023/08/27 06:40:28;;;;;;;4.28;1.40;;;;;;;18.36;88.01;100172.28;4923334;29;20050;-58
2023/08/27 06:42:53;;;;;;;1.40;1.30;;;;;;;18.44;87.59;100173.72;4945864;29;20106;-55
2023/08/27 06:45:22;;;;;;;1.33;1.00;;;;;;;18.53;87.52;100173.91;4924170;29;20075;-58
2023/08/27 06:47:47;;;;;;;1.67;1.15;;;;;;;18.60;87.64;100168.34;4925657;29;20047;-59
2023/08/27 06:50:13;;;;;;;1.33;1.15;;;;;;;18.61;87.53;100164.41;4933284;29;20057;-59
2023/08/27 06:52:38;;;;;;;1.38;1.17;;;;;;;18.71;87.27;100169.66;4974499;28;20036;-57
2023/08/27 06:55:04;;;;;;;2.33;1.48;;;;;;;18.79;86.90;100173.00;5046074;28;20044;-59
2023/08/27 06:57:29;;;;;;;1.75;1.20;;;;;;;18.86;86.31;100175.56;5048405;28;20036;-59
2023/08/27 06:59:55;;;;;;;1.48;1.13;;;;;;;18.94;86.22;100168.78;5031949;28;20036;-59
2023/08/27 07:02:21;;;;;;;1.30;1.13;;;;;;;18.98;86.23;100177.66;5030031;28;20491;-58
2023/08/27 07:04:46;;;;;;;1.23;1.10;;;;;;;19.02;85.83;100178.34;5026514;28;20029;-58
2023/08/27 07:07:13;;;;;;;3.17;1.63;;;;;;;19.08;85.77;100190.31;5027868;28;20021;-59
2023/08/27 07:09:38;;;;;;;3.45;1.17;;;;;;;19.05;85.71;100180.22;5029014;28;20112;-59
2023/08/27 07:12:05;;;;;;;1.75;1.20;;;;;;;19.08;85.75;100173.16;5030614;28;20108;-59
2023/08/27 07:14:31;;;;;;;1.23;1.02;;;;;;;19.10;85.83;100166.06;5048474;28;20037;-59
2023/08/27 07:16:56;;;;;;;1.40;1.20;;;;;;;19.15;85.54;100164.78;5048461;28;20048;-59
2023/08/27 07:19:22;;;;;;;1.33;1.20;;;;;;;19.37;85.39;100166.66;5046379;28;20074;-59
2023/08/27 07:21:47;;;;;;;1.73;0.95;;;;;;;19.51;83.22;100160.09;5047204;28;20098;-59
2023/08/27 07:24:16;;;;;;;1.65;1.10;;;;;;;19.55;80.48;100155.31;5047202;28;20087;-59
2023/08/27 07:26:42;;;;;;;5.07;1.00;;;;;;;19.66;80.40;100153.84;5031142;28;20104;-58
2023/08/27 07:29:08;;;;;;;1.52;1.15;;;;;;;19.77;80.21;100169.97;5046723;28;20543;-59
2023/08/27 07:31:34;;;;;;;1.52;1.02;;;;;;;20.09;79.71;100171.88;5027393;28;20052;-60
2023/08/27 07:34:00;;;;;;;1.35;1.00;;;;;;;20.00;79.39;100172.50;5019425;28;20072;-59
2023/08/27 07:36:25;;;;;;;2.90;1.08;;;;;;;20.43;78.30;100177.63;5046815;28;20032;-59
2023/08/27 07:38:52;;;;;;;1.08;0.82;;;;;;;20.61;75.62;100180.63;5027399;28;20454;-60
2023/08/27 07:41:17;;;;;;;1.67;0.98;;;;;;;20.59;76.00;100177.56;5045223;28;20065;-58
2023/08/27 07:43:43;;;;;;;2.45;1.10;;;;;;;20.70;76.06;100167.06;5029138;28;20033;-59
2023/08/27 07:46:08;;;;;;;1.42;0.90;;;;;;;20.84;74.28;100169.41;5031140;28;20024;-59
2023/08/27 07:48:34;;;;;;;2.13;1.10;;;;;;;20.98;75.09;100174.44;5030672;28;20478;-58
2023/08/27 07:51:02;;;;;;;1.23;1.02;;;;;;;21.36;73.53;100178.00;5012202;28;20751;-58
2023/08/27 07:53:28;;;;;;;1.52;0.90;;;;;;;21.07;73.03;100171.88;5047923;28;20108;-58
2023/08/27 07:55:54;;;;;;;1.45;0.98;;;;;;;21.29;73.49;100167.25;5030537;28;20039;-59
2023/08/27 07:58:20;;;;;;;1.38;0.82;;;;;;;21.45;73.11;100169.88;5048145;28;20037;-57
2023/08/27 08:00:46;;;;;;;1.45;1.08;;;;;;;21.33;73.19;100159.69;5044749;28;20391;-60
2023/08/27 08:03:11;;;;;;;1.05;1.00;;;;;;;21.41;72.10;100155.50;5029833;28;20021;-59
2023/08/27 08:05:36;;;;;;;1.90;0.90;;;;;;;20.74;73.31;100173.22;5048449;28;20037;-59
2023/08/27 08:08:02;;;;;;;2.38;1.15;;;;;;;20.75;74.93;100174.72;5046541;28;20510;-59
2023/08/27 08:10:28;;;;;;;1.95;1.30;;;;;;;20.84;75.50;100174.09;5048391;28;20484;-59
2023/08/27 08:12:54;;;;;;;4.22;1.23;;;;;;;20.72;75.47;100170.16;5047015;28;20052;-58
2023/08/27 08:15:19;;;;;;;1.25;0.90;;;;;;;21.07;76.18;100187.53;5045426;28;20463;-59
2023/08/27 08:17:45;;;;;;;1.30;1.00;;;;;;;21.25;74.20;100207.69;5047861;28;20662;-56
2023/08/27 08:20:11;;;;;;;2.58;1.20;;;;;;;21.68;74.57;100198.16;5048948;28;20060;-58
2023/08/27 08:22:37;;;;;;;1.42;1.10;;;;;;;21.79;73.36;100177.38;5048140;28;20052;-58
2023/08/27 08:25:03;;;;;;;2.83;1.20;;;;;;;21.89;73.33;100187.25;5048284;28;20078;-59
2023/08/27 08:27:29;;;;;;;2.45;1.15;;;;;;;22.07;72.26;100190.16;5029409;28;20037;-58
2023/08/27 08:29:54;;;;;;;1.05;0.75;;;;;;;22.28;71.54;100180.41;5052908;28;20399;-57
2023/08/27 08:32:20;;;;;;;1.38;1.10;;;;;;;22.18;69.46;100179.59;5032854;28;20053;-58
2023/08/27 08:34:46;;;;;;;1.63;0.90;;;;;;;21.82;71.09;100181.22;5051969;28;20032;-56
2023/08/27 08:37:11;;;;;;;2.20;1.20;;;;;;;21.73;71.81;100200.31;5052190;28;20101;-58
2023/08/27 08:39:37;;;;;;;1.40;1.00;;;;;;;21.78;71.81;100194.25;5045528;28;20029;-59
2023/08/27 08:42:12;;;;;;;1.13;1.02;;;;;;;21.43;73.57;100194.22;5050863;28;20085;-58
2023/08/27 08:45:07;;;;;;;1.42;1.10;;;;;;;21.78;73.47;100186.81;5052396;28;20037;-57
2023/08/27 08:47:35;;;;;;;1.45;1.13;;;;;;;22.10;72.87;100153.63;5050826;28;20037;-57
2023/08/27 08:50:10;;;;;;;1.50;1.02;;;;;;;21.94;72.15;100159.28;5034349;28;20051;-59
2023/08/27 08:52:39;;;;;;;1.23;1.10;;;;;;;21.93;71.92;100154.25;5046556;28;20073;-58
2023/08/27 08:55:09;;;;;;;1.13;1.02;;;;;;;21.66;71.75;100145.72;5031199;28;20037;-60
2023/08/27 08:57:43;;;;;;;1.10;0.90;;;;;;;21.40;73.67;100143.03;5048732;28;20044;-59
2023/08/27 09:00:11;;;;;;;2.13;1.30;;;;;;;21.77;72.79;100132.41;5050557;28;20075;-57
2023/08/27 09:02:37;;;;;;;1.67;1.27;;;;;;;22.00;72.56;100153.97;5050565;28;20017;-59
2023/08/27 09:05:05;;;;;;;1.58;1.10;;;;;;;22.13;72.27;100160.19;5043886;28;20052;-57
2023/08/27 09:07:33;;;;;;;1.85;1.30;;;;;;;22.14;72.23;100154.25;5049998;28;20039;-59
2023/08/27 09:10:00;;;;;;;2.38;1.35;;;;;;;22.34;70.28;100157.47;5034504;28;20040;-57
2023/08/27 09:12:27;;;;;;;1.83;1.25;;;;;;;22.36;69.67;100162.50;5043500;28;20017;-58
2023/08/27 09:14:53;;;;;;;4.72;1.20;;;;;;;22.40;69.93;100158.41;5042802;28;20444;-57
2023/08/27 09:17:19;;;;;;;1.25;1.13;;;;;;;22.20;71.74;100160.69;5049637;28;20115;-57
2023/08/27 09:19:46;;;;;;;1.30;1.20;;;;;;;22.20;70.70;100151.72;5021291;28;20074;-56
2023/08/27 09:22:15;;;;;;;1.63;1.30;;;;;;;22.29;70.99;100151.78;5044618;28;20426;-58
2023/08/27 09:24:41;;;;;;;1.33;0.90;;;;;;;22.48;71.51;100164.41;5044717;28;20043;-58
2023/08/27 09:27:06;;;;;;;3.03;1.02;;;;;;;22.66;70.88;100161.81;5052657;28;20116;-56
2023/08/27 09:29:33;;;;;;;4.03;1.23;;;;;;;22.88;70.36;100168.03;5031223;28;20017;-57
2023/08/27 09:31:59;;;;;;;1.65;1.40;;;;;;;22.90;69.67;100162.84;5026534;28;20041;-56
2023/08/27 09:34:25;;;;;;;1.42;1.08;;;;;;;22.93;69.77;100161.19;5047938;28;20580;-59
2023/08/27 09:36:51;;;;;;;1.15;1.05;;;;;;;23.02;70.89;100148.25;5047172;28;20059;-59
2023/08/27 09:39:16;;;;;;;3.50;1.15;;;;;;;23.30;68.55;100158.16;5011931;28;20033;-59
2023/08/27 09:41:44;;;;;;;2.38;1.10;;;;;;;23.22;68.59;100154.16;5044283;28;20035;-58
2023/08/27 09:44:10;;;;;;;2.30;1.38;;;;;;;22.95;68.84;100161.50;5043583;28;20115;-57
2023/08/27 09:46:36;;;;;;;1.08;0.90;;;;;;;23.24;69.08;100156.44;5041839;28;20065;-58
2023/08/27 09:49:07;;;;;;;1.50;1.10;;;;;;;23.38;69.10;100153.16;5050123;28;20247;-57
2023/08/27 09:51:34;;;;;;;1.35;1.00;;;;;;;23.59;67.48;100146.78;5050303;28;20041;-58
2023/08/27 09:54:00;;;;;;;1.98;1.00;;;;;;;23.75;65.52;100140.25;5044440;28;20125;-58
2023/08/27 09:56:27;;;;;;;1.63;0.77;;;;;;;23.51;67.11;100144.78;5042906;28;20458;-58
2023/08/27 09:58:54;;;;;;;1.38;0.90;;;;;;;23.75;66.36;100143.00;5045622;28;20123;-58
2023/08/27 10:01:23;;;;;;;1.60;0.93;;;;;;;23.98;67.13;100131.41;5035492;28;20104;-56
2023/08/27 10:03:49;;;;;;;2.00;0.60;;;;;;;24.11;66.41;100129.28;5047857;28;20033;-58
2023/08/27 10:06:14;;;;;;;1.20;0.90;;;;;;;24.33;65.87;100120.84;5049422;28;20868;-58
2023/08/27 10:08:49;;;;;;;1.55;0.77;;;;;;;24.55;65.91;100129.66;5041239;28;20086;-60
2023/08/27 10:11:15;;;;;;;1.35;1.00;;;;;;;24.34;60.25;100138.88;5043669;28;20041;-59
2023/08/27 10:13:43;;;;;;;1.02;0.90;;;;;;;24.33;64.22;100140.13;5047986;28;20083;-56
2023/08/27 10:16:10;;;;;;;1.20;0.93;;;;;;;24.36;61.65;100141.94;5047938;28;20037;-55
2023/08/27 10:18:37;;;;;;;0.65;0.65;;;;;;;24.43;62.73;100136.88;5048758;28;20475;-56
2023/08/27 10:21:04;;;;;;;1.02;0.75;;;;;;;24.54;63.05;100133.66;5049662;28;20035;-58
2023/08/27 10:23:31;;;;;;;1.05;0.95;;;;;;;24.47;62.77;100140.22;5049221;28;20033;-58
2023/08/27 10:25:58;;;;;;;0.95;0.68;;;;;;;24.58;62.56;100123.22;5050150;28;20545;-56
2023/08/27 10:28:26;;;;;;;0.68;0.57;;;;;;;24.71;62.50;100119.06;5043787;28;20507;-55
2023/08/27 10:30:53;;;;;;;1.60;1.20;;;;;;;24.70;60.79;100119.53;5017042;28;20127;-56
2023/08/27 10:33:18;;;;;;;3.15;1.60;;;;;;;24.42;60.11;100116.06;5042232;22;20092;-60
2023/08/27 10:35:47;;;;;;;1.73;1.20;;;;;;;24.56;60.13;100104.44;5025059;28;20021;-62
2023/08/27 10:38:15;;;;;;;1.00;0.75;;;;;;;24.67;61.33;100096.44;5046260;28;20048;-63
2023/08/27 10:40:46;;;;;;;0.70;0.68;;;;;;;24.77;62.74;100106.22;5028191;28;20033;-62
2023/08/27 10:43:19;;;;;;;4.50;1.40;;;;;;;24.76;60.65;100099.16;5023275;28;20045;-60
2023/08/27 10:45:46;;;;;;;7.43;3.58;;;;;;;24.75;61.14;100097.66;5023974;28;20025;-63
2023/08/27 10:48:18;;;;;;;1.38;0.93;;;;;;;24.91;61.23;100088.25;5026922;28;20030;-62
2023/08/27 10:50:51;;;;;;;4.32;1.83;;;;;;;24.77;57.84;100088.91;5033592;28;20400;-60
2023/08/27 10:53:19;;;;;;;2.78;1.48;;;;;;;24.39;58.23;100078.44;5021139;28;20033;-62
2023/08/27 10:55:50;;;;;;;1.52;1.00;;;;;;;24.47;58.81;100071.38;5023278;28;20033;-62
2023/08/27 10:58:16;;;;;;;;;;;;;;;24.39;59.34;100061.91;5025458;28;20545;-62
2023/08/27 11:01:02;;;;;;;7.50;1.80;;;;;;;24.64;59.54;100066.28;5032728;28;19909;-61
2023/08/27 11:03:27;;;;;;;15.07;5.80;;;;;;;24.73;60.57;100066.28;5011866;28;20035;-64
2023/08/27 11:06:13;;;;;;;5.22;3.00;;;;;;;24.75;59.91;100067.34;5026715;28;20566;-62
2023/08/27 11:08:41;;;;;;;0.82;0.80;;;;;;;24.91;57.68;100072.47;5023098;28;20033;-62
2023/08/27 11:11:15;;;;;;;0.65;0.60;;;;;;;24.95;58.04;100070.28;5028914;28;20421;-62
2023/08/27 11:13:41;;;;;;;2.75;0.80;;;;;;;25.01;58.04;100070.41;5028748;28;20034;-61
2023/08/27 11:16:11;;;;;;;0.55;0.52;;;;;;;25.03;57.99;100054.94;5020038;28;20084;-60
2023/08/27 11:18:50;;;;;;;0.60;0.60;;;;;;;24.56;58.01;100056.84;5019493;28;20033;-60
2023/08/27 11:21:44;;;;;;;0.88;0.65;;;;;;;24.57;58.21;100055.59;5029005;28;20065;-62
2023/08/27 11:24:18;;;;;;;0.55;0.55;;;;;;;24.43;58.02;100053.50;5023032;28;20060;-62